Terminal Aerodrome Forecast
Issued by NWS

Home | Current Version | Previous Version | Text Only | Print | Product List | Glossary On
Versions: 1 2 3 4 5 6 7 8 9 10 11 12 13 14
000
FTUS46 KSEW 201100
TAFCLM
TAF
KCLM 201136Z 2012/2112 28006KT P6SM SCT030 BKN050
      TEMPO 2012/2016 OVC020
     FM201800 28005KT P6SM BKN025
     FM202000 30008KT P6SM SCT040
     FM211000 28006KT P6SM BKN030
      AMD NOT SKED=

USA.gov is the U.S. government's official web portal to all federal, state and local government web resources and services.